sensor_id;sensor_type;location;lat;lon;timestamp;P1;durP1;ratioP1;P2;durP2;ratioP2
76115;SDS011;64847;45.778;12.802;2023-04-25T00:01:53;3.77;;;3.57;;
76115;SDS011;64847;45.778;12.802;2023-04-25T00:04:18;4.60;;;4.20;;
76115;SDS011;64847;45.778;12.802;2023-04-25T00:06:44;3.73;;;3.43;;
76115;SDS011;64847;45.778;12.802;2023-04-25T00:09:09;3.90;;;3.60;;
76115;SDS011;64847;45.778;12.802;2023-04-25T00:11:36;3.93;;;3.63;;
76115;SDS011;64847;45.778;12.802;2023-04-25T00:14:02;3.70;;;3.50;;
76115;SDS011;64847;45.778;12.802;2023-04-25T00:16:28;3.53;;;3.33;;
76115;SDS011;64847;45.778;12.802;2023-04-25T00:18:54;3.40;;;3.20;;
76115;SDS011;64847;45.778;12.802;2023-04-25T00:21:20;4.30;;;4.00;;
76115;SDS011;64847;45.778;12.802;2023-04-25T00:23:46;3.73;;;3.53;;
76115;SDS011;64847;45.778;12.802;2023-04-25T00:26:11;3.83;;;3.60;;
76115;SDS011;64847;45.778;12.802;2023-04-25T00:28:37;3.47;;;3.27;;
76115;SDS011;64847;45.778;12.802;2023-04-25T00:31:03;4.33;;;3.67;;
76115;SDS011;64847;45.778;12.802;2023-04-25T00:33:29;3.57;;;3.37;;
76115;SDS011;64847;45.778;12.802;2023-04-25T00:35:55;3.53;;;3.23;;
76115;SDS011;64847;45.778;12.802;2023-04-25T00:38:20;3.53;;;3.30;;
76115;SDS011;64847;45.778;12.802;2023-04-25T00:40:46;3.53;;;3.33;;
76115;SDS011;64847;45.778;12.802;2023-04-25T00:43:11;3.33;;;3.13;;
76115;SDS011;64847;45.778;12.802;2023-04-25T00:45:38;4.10;;;3.73;;
76115;SDS011;64847;45.778;12.802;2023-04-25T00:48:04;4.23;;;3.83;;
76115;SDS011;64847;45.778;12.802;2023-04-25T00:50:29;4.80;;;3.70;;
76115;SDS011;64847;45.778;12.802;2023-04-25T00:52:55;3.53;;;3.33;;
76115;SDS011;64847;45.778;12.802;2023-04-25T00:55:21;4.47;;;4.17;;
76115;SDS011;64847;45.778;12.802;2023-04-25T00:57:46;4.30;;;3.93;;
76115;SDS011;64847;45.778;12.802;2023-04-25T01:00:12;3.97;;;3.67;;
76115;SDS011;64847;45.778;12.802;2023-04-25T01:02:39;3.77;;;3.57;;
76115;SDS011;64847;45.778;12.802;2023-04-25T01:05:06;4.07;;;3.83;;
76115;SDS011;64847;45.778;12.802;2023-04-25T01:07:31;3.97;;;3.67;;
76115;SDS011;64847;45.778;12.802;2023-04-25T01:09:57;4.73;;;4.23;;
76115;SDS011;64847;45.778;12.802;2023-04-25T01:12:23;4.37;;;4.07;;
76115;SDS011;64847;45.778;12.802;2023-04-25T01:14:48;3.83;;;3.53;;
76115;SDS011;64847;45.778;12.802;2023-04-25T01:17:14;3.37;;;3.17;;
76115;SDS011;64847;45.778;12.802;2023-04-25T01:19:40;3.70;;;3.50;;
76115;SDS011;64847;45.778;12.802;2023-04-25T01:22:05;3.63;;;3.37;;
76115;SDS011;64847;45.778;12.802;2023-04-25T01:24:32;4.40;;;4.10;;
76115;SDS011;64847;45.778;12.802;2023-04-25T01:26:58;3.90;;;3.70;;
76115;SDS011;64847;45.778;12.802;2023-04-25T01:29:25;4.57;;;4.27;;
76115;SDS011;64847;45.778;12.802;2023-04-25T01:31:51;4.97;;;4.57;;
76115;SDS011;64847;45.778;12.802;2023-04-25T01:34:17;4.53;;;4.23;;
76115;SDS011;64847;45.778;12.802;2023-04-25T01:36:43;5.40;;;5.00;;
76115;SDS011;64847;45.778;12.802;2023-04-25T01:39:08;7.87;;;7.07;;
76115;SDS011;64847;45.778;12.802;2023-04-25T01:41:34;7.30;;;6.60;;
76115;SDS011;64847;45.778;12.802;2023-04-25T01:44:00;7.80;;;7.00;;
76115;SDS011;64847;45.778;12.802;2023-04-25T01:46:26;6.83;;;6.23;;
76115;SDS011;64847;45.778;12.802;2023-04-25T01:48:52;7.00;;;6.40;;
76115;SDS011;64847;45.778;12.802;2023-04-25T01:51:18;7.20;;;6.50;;
76115;SDS011;64847;45.778;12.802;2023-04-25T01:53:43;6.47;;;5.87;;
76115;SDS011;64847;45.778;12.802;2023-04-25T01:56:09;6.20;;;5.67;;
76115;SDS011;64847;45.778;12.802;2023-04-25T01:58:34;5.73;;;5.23;;
76115;SDS011;64847;45.778;12.802;2023-04-25T02:01:00;6.03;;;5.33;;
76115;SDS011;64847;45.778;12.802;2023-04-25T02:03:25;5.40;;;4.90;;
76115;SDS011;64847;45.778;12.802;2023-04-25T02:05:51;4.70;;;4.40;;
76115;SDS011;64847;45.778;12.802;2023-04-25T02:08:16;5.00;;;4.60;;
76115;SDS011;64847;45.778;12.802;2023-04-25T02:10:42;4.80;;;4.50;;
76115;SDS011;64847;45.778;12.802;2023-04-25T02:13:07;4.40;;;4.10;;
76115;SDS011;64847;45.778;12.802;2023-04-25T02:15:33;3.90;;;3.70;;
76115;SDS011;64847;45.778;12.802;2023-04-25T02:17:58;4.50;;;4.07;;
76115;SDS011;64847;45.778;12.802;2023-04-25T02:20:25;4.20;;;3.90;;
76115;SDS011;64847;45.778;12.802;2023-04-25T02:22:51;4.83;;;4.40;;
76115;SDS011;64847;45.778;12.802;2023-04-25T02:25:17;4.47;;;4.03;;
76115;SDS011;64847;45.778;12.802;2023-04-25T02:27:45;4.00;;;3.77;;
76115;SDS011;64847;45.778;12.802;2023-04-25T02:30:10;4.00;;;3.80;;
76115;SDS011;64847;45.778;12.802;2023-04-25T02:32:36;4.40;;;4.07;;
76115;SDS011;64847;45.778;12.802;2023-04-25T02:35:01;4.30;;;4.00;;
76115;SDS011;64847;45.778;12.802;2023-04-25T02:37:34;4.70;;;4.40;;
76115;SDS011;64847;45.778;12.802;2023-04-25T02:40:00;4.50;;;4.20;;
76115;SDS011;64847;45.778;12.802;2023-04-25T02:42:26;4.23;;;3.93;;
76115;SDS011;64847;45.778;12.802;2023-04-25T02:44:52;4.10;;;3.87;;
76115;SDS011;64847;45.778;12.802;2023-04-25T02:47:17;4.23;;;3.93;;
76115;SDS011;64847;45.778;12.802;2023-04-25T02:49:42;4.30;;;4.00;;
76115;SDS011;64847;45.778;12.802;2023-04-25T02:52:08;3.90;;;3.70;;
76115;SDS011;64847;45.778;12.802;2023-04-25T02:54:34;4.30;;;3.90;;
76115;SDS011;64847;45.778;12.802;2023-04-25T02:56:59;4.00;;;3.70;;
76115;SDS011;64847;45.778;12.802;2023-04-25T02:59:26;4.07;;;3.80;;
76115;SDS011;64847;45.778;12.802;2023-04-25T03:01:51;4.47;;;4.10;;
76115;SDS011;64847;45.778;12.802;2023-04-25T03:04:16;3.70;;;3.50;;
76115;SDS011;64847;45.778;12.802;2023-04-25T03:06:43;4.30;;;3.77;;
76115;SDS011;64847;45.778;12.802;2023-04-25T03:09:09;3.97;;;3.77;;
76115;SDS011;64847;45.778;12.802;2023-04-25T03:11:34;3.70;;;3.50;;
76115;SDS011;64847;45.778;12.802;2023-04-25T03:14:00;3.30;;;3.10;;
76115;SDS011;64847;45.778;12.802;2023-04-25T03:16:25;3.70;;;3.50;;
76115;SDS011;64847;45.778;12.802;2023-04-25T03:18:50;3.70;;;3.50;;
76115;SDS011;64847;45.778;12.802;2023-04-25T03:21:16;4.03;;;3.73;;
76115;SDS011;64847;45.778;12.802;2023-04-25T03:23:42;3.73;;;3.47;;
76115;SDS011;64847;45.778;12.802;2023-04-25T03:26:07;3.80;;;3.50;;
76115;SDS011;64847;45.778;12.802;2023-04-25T03:28:33;3.23;;;3.03;;
76115;SDS011;64847;45.778;12.802;2023-04-25T03:30:58;3.33;;;3.13;;
76115;SDS011;64847;45.778;12.802;2023-04-25T03:33:23;3.80;;;3.60;;
76115;SDS011;64847;45.778;12.802;2023-04-25T03:35:49;3.50;;;3.30;;
76115;SDS011;64847;45.778;12.802;2023-04-25T03:38:15;3.50;;;3.30;;
76115;SDS011;64847;45.778;12.802;2023-04-25T03:40:40;3.80;;;3.60;;
76115;SDS011;64847;45.778;12.802;2023-04-25T03:43:06;3.57;;;3.37;;
76115;SDS011;64847;45.778;12.802;2023-04-25T03:45:32;3.20;;;3.00;;
76115;SDS011;64847;45.778;12.802;2023-04-25T03:47:57;3.07;;;2.97;;
76115;SDS011;64847;45.778;12.802;2023-04-25T03:50:22;3.00;;;2.90;;
76115;SDS011;64847;45.778;12.802;2023-04-25T03:52:48;3.40;;;3.13;;
76115;SDS011;64847;45.778;12.802;2023-04-25T03:55:13;3.20;;;3.00;;
76115;SDS011;64847;45.778;12.802;2023-04-25T03:57:38;3.50;;;3.30;;
76115;SDS011;64847;45.778;12.802;2023-04-25T04:00:04;3.10;;;2.90;;
76115;SDS011;64847;45.778;12.802;2023-04-25T04:02:31;3.47;;;3.17;;
76115;SDS011;64847;45.778;12.802;2023-04-25T04:04:58;3.10;;;2.90;;
76115;SDS011;64847;45.778;12.802;2023-04-25T04:07:23;3.00;;;2.90;;
76115;SDS011;64847;45.778;12.802;2023-04-25T04:09:48;3.10;;;2.90;;
76115;SDS011;64847;45.778;12.802;2023-04-25T04:12:14;3.70;;;3.40;;
76115;SDS011;64847;45.778;12.802;2023-04-25T04:14:39;3.30;;;3.10;;
76115;SDS011;64847;45.778;12.802;2023-04-25T04:17:05;3.33;;;3.10;;
76115;SDS011;64847;45.778;12.802;2023-04-25T04:19:31;3.20;;;3.00;;
76115;SDS011;64847;45.778;12.802;2023-04-25T04:21:56;3.60;;;3.30;;
76115;SDS011;64847;45.778;12.802;2023-04-25T04:24:22;2.70;;;2.50;;
76115;SDS011;64847;45.778;12.802;2023-04-25T04:26:49;2.90;;;2.70;;
76115;SDS011;64847;45.778;12.802;2023-04-25T04:29:15;2.93;;;2.73;;
76115;SDS011;64847;45.778;12.802;2023-04-25T04:31:48;2.93;;;2.73;;
76115;SDS011;64847;45.778;12.802;2023-04-25T04:34:15;2.87;;;2.60;;
76115;SDS011;64847;45.778;12.802;2023-04-25T04:36:44;2.60;;;2.40;;
76115;SDS011;64847;45.778;12.802;2023-04-25T04:39:11;2.87;;;2.67;;
76115;SDS011;64847;45.778;12.802;2023-04-25T04:41:37;2.90;;;2.70;;
76115;SDS011;64847;45.778;12.802;2023-04-25T04:44:03;2.80;;;2.60;;
76115;SDS011;64847;45.778;12.802;2023-04-25T04:46:28;2.70;;;2.53;;
76115;SDS011;64847;45.778;12.802;2023-04-25T04:48:55;2.47;;;2.37;;
76115;SDS011;64847;45.778;12.802;2023-04-25T04:51:21;2.80;;;2.60;;
76115;SDS011;64847;45.778;12.802;2023-04-25T04:53:46;2.30;;;2.20;;
76115;SDS011;64847;45.778;12.802;2023-04-25T04:56:12;2.73;;;2.53;;
76115;SDS011;64847;45.778;12.802;2023-04-25T04:58:37;2.80;;;2.60;;
76115;SDS011;64847;45.778;12.802;2023-04-25T05:01:03;2.90;;;2.60;;
76115;SDS011;64847;45.778;12.802;2023-04-25T05:03:28;3.33;;;3.00;;
76115;SDS011;64847;45.778;12.802;2023-04-25T05:05:54;3.20;;;2.87;;
76115;SDS011;64847;45.778;12.802;2023-04-25T05:08:20;2.63;;;2.40;;
76115;SDS011;64847;45.778;12.802;2023-04-25T05:10:45;2.90;;;2.70;;
76115;SDS011;64847;45.778;12.802;2023-04-25T05:13:11;3.77;;;2.90;;
76115;SDS011;64847;45.778;12.802;2023-04-25T05:15:36;3.07;;;2.77;;
76115;SDS011;64847;45.778;12.802;2023-04-25T05:18:02;3.03;;;2.80;;
76115;SDS011;64847;45.778;12.802;2023-04-25T05:20:27;2.90;;;2.60;;
76115;SDS011;64847;45.778;12.802;2023-04-25T05:22:53;3.50;;;2.37;;
76115;SDS011;64847;45.778;12.802;2023-04-25T05:25:18;2.70;;;2.50;;
76115;SDS011;64847;45.778;12.802;2023-04-25T05:27:43;2.63;;;2.47;;
76115;SDS011;64847;45.778;12.802;2023-04-25T05:30:09;3.00;;;2.67;;
76115;SDS011;64847;45.778;12.802;2023-04-25T05:32:35;2.70;;;2.50;;
76115;SDS011;64847;45.778;12.802;2023-04-25T05:35:00;2.57;;;2.47;;
76115;SDS011;64847;45.778;12.802;2023-04-25T05:37:26;2.30;;;2.17;;
76115;SDS011;64847;45.778;12.802;2023-04-25T05:39:51;5.63;;;2.30;;
76115;SDS011;64847;45.778;12.802;2023-04-25T05:42:17;3.90;;;2.30;;
76115;SDS011;64847;45.778;12.802;2023-04-25T05:44:42;2.80;;;2.60;;
76115;SDS011;64847;45.778;12.802;2023-04-25T05:47:08;2.90;;;2.60;;
76115;SDS011;64847;45.778;12.802;2023-04-25T05:49:34;2.60;;;2.40;;
76115;SDS011;64847;45.778;12.802;2023-04-25T05:51:59;2.90;;;2.70;;
76115;SDS011;64847;45.778;12.802;2023-04-25T05:54:25;2.40;;;2.23;;
76115;SDS011;64847;45.778;12.802;2023-04-25T05:56:50;2.50;;;2.30;;
76115;SDS011;64847;45.778;12.802;2023-04-25T05:59:15;2.27;;;2.17;;
76115;SDS011;64847;45.778;12.802;2023-04-25T06:01:41;2.07;;;1.97;;
76115;SDS011;64847;45.778;12.802;2023-04-25T06:04:06;2.10;;;2.00;;
76115;SDS011;64847;45.778;12.802;2023-04-25T06:06:32;2.70;;;2.50;;
76115;SDS011;64847;45.778;12.802;2023-04-25T06:08:57;2.47;;;2.37;;
76115;SDS011;64847;45.778;12.802;2023-04-25T06:11:23;2.70;;;2.50;;
76115;SDS011;64847;45.778;12.802;2023-04-25T06:13:48;2.83;;;2.63;;
76115;SDS011;64847;45.778;12.802;2023-04-25T06:16:13;2.83;;;2.63;;
76115;SDS011;64847;45.778;12.802;2023-04-25T06:18:39;2.33;;;2.23;;
76115;SDS011;64847;45.778;12.802;2023-04-25T06:21:04;2.60;;;2.40;;
76115;SDS011;64847;45.778;12.802;2023-04-25T06:23:30;2.20;;;2.10;;
76115;SDS011;64847;45.778;12.802;2023-04-25T06:25:55;2.53;;;2.33;;
76115;SDS011;64847;45.778;12.802;2023-04-25T06:28:21;2.00;;;1.90;;
76115;SDS011;64847;45.778;12.802;2023-04-25T06:30:47;2.13;;;2.00;;
76115;SDS011;64847;45.778;12.802;2023-04-25T06:33:12;2.00;;;1.90;;
76115;SDS011;64847;45.778;12.802;2023-04-25T06:35:37;2.17;;;1.97;;
76115;SDS011;64847;45.778;12.802;2023-04-25T06:38:03;1.83;;;1.73;;
76115;SDS011;64847;45.778;12.802;2023-04-25T06:40:28;2.07;;;1.97;;
76115;SDS011;64847;45.778;12.802;2023-04-25T06:42:54;2.00;;;1.90;;
76115;SDS011;64847;45.778;12.802;2023-04-25T06:45:19;2.20;;;2.10;;
76115;SDS011;64847;45.778;12.802;2023-04-25T06:47:45;1.70;;;1.70;;
76115;SDS011;64847;45.778;12.802;2023-04-25T06:50:10;2.63;;;2.30;;
76115;SDS011;64847;45.778;12.802;2023-04-25T06:52:36;2.30;;;1.87;;
76115;SDS011;64847;45.778;12.802;2023-04-25T06:55:01;2.27;;;2.17;;
76115;SDS011;64847;45.778;12.802;2023-04-25T06:57:26;2.20;;;2.00;;
76115;SDS011;64847;45.778;12.802;2023-04-25T06:59:52;2.37;;;2.23;;
76115;SDS011;64847;45.778;12.802;2023-04-25T07:02:17;2.13;;;2.03;;
76115;SDS011;64847;45.778;12.802;2023-04-25T07:04:42;2.07;;;1.97;;
76115;SDS011;64847;45.778;12.802;2023-04-25T07:07:08;2.63;;;2.43;;
76115;SDS011;64847;45.778;12.802;2023-04-25T07:09:33;2.30;;;2.20;;
76115;SDS011;64847;45.778;12.802;2023-04-25T07:12:00;2.00;;;1.90;;
76115;SDS011;64847;45.778;12.802;2023-04-25T07:14:28;2.10;;;2.00;;
76115;SDS011;64847;45.778;12.802;2023-04-25T07:16:54;1.97;;;1.87;;
76115;SDS011;64847;45.778;12.802;2023-04-25T07:19:21;1.80;;;1.70;;
76115;SDS011;64847;45.778;12.802;2023-04-25T07:21:48;1.90;;;1.80;;
76115;SDS011;64847;45.778;12.802;2023-04-25T07:24:14;2.00;;;1.90;;
76115;SDS011;64847;45.778;12.802;2023-04-25T07:26:39;2.73;;;1.80;;
76115;SDS011;64847;45.778;12.802;2023-04-25T07:29:05;2.00;;;1.90;;
76115;SDS011;64847;45.778;12.802;2023-04-25T07:31:30;1.80;;;1.70;;
76115;SDS011;64847;45.778;12.802;2023-04-25T07:33:55;2.00;;;1.90;;
76115;SDS011;64847;45.778;12.802;2023-04-25T07:36:21;1.90;;;1.80;;
76115;SDS011;64847;45.778;12.802;2023-04-25T07:38:46;2.60;;;1.83;;
76115;SDS011;64847;45.778;12.802;2023-04-25T07:41:11;1.70;;;1.70;;
76115;SDS011;64847;45.778;12.802;2023-04-25T07:43:37;1.97;;;1.87;;
76115;SDS011;64847;45.778;12.802;2023-04-25T07:46:03;1.90;;;1.80;;
76115;SDS011;64847;45.778;12.802;2023-04-25T07:48:29;2.10;;;1.90;;
76115;SDS011;64847;45.778;12.802;2023-04-25T07:50:55;2.17;;;2.07;;
76115;SDS011;64847;45.778;12.802;2023-04-25T07:53:20;2.10;;;2.00;;
76115;SDS011;64847;45.778;12.802;2023-04-25T07:55:46;2.10;;;2.00;;
76115;SDS011;64847;45.778;12.802;2023-04-25T07:58:11;2.10;;;2.00;;
76115;SDS011;64847;45.778;12.802;2023-04-25T08:00:37;2.00;;;1.90;;
76115;SDS011;64847;45.778;12.802;2023-04-25T08:03:02;2.17;;;2.07;;
76115;SDS011;64847;45.778;12.802;2023-04-25T08:05:28;2.40;;;2.30;;
76115;SDS011;64847;45.778;12.802;2023-04-25T08:07:54;2.67;;;2.40;;
76115;SDS011;64847;45.778;12.802;2023-04-25T08:10:19;2.33;;;2.13;;
76115;SDS011;64847;45.778;12.802;2023-04-25T08:12:45;3.37;;;2.83;;
76115;SDS011;64847;45.778;12.802;2023-04-25T08:15:11;2.57;;;2.37;;
76115;SDS011;64847;45.778;12.802;2023-04-25T08:17:38;3.07;;;2.60;;
76115;SDS011;64847;45.778;12.802;2023-04-25T08:20:04;2.53;;;2.20;;
76115;SDS011;64847;45.778;12.802;2023-04-25T08:22:33;2.43;;;2.23;;
76115;SDS011;64847;45.778;12.802;2023-04-25T08:24:59;2.30;;;2.17;;
76115;SDS011;64847;45.778;12.802;2023-04-25T08:27:25;2.23;;;2.13;;
76115;SDS011;64847;45.778;12.802;2023-04-25T08:29:50;2.20;;;2.10;;
76115;SDS011;64847;45.778;12.802;2023-04-25T08:32:16;2.20;;;2.10;;
76115;SDS011;64847;45.778;12.802;2023-04-25T08:34:41;3.07;;;2.20;;
76115;SDS011;64847;45.778;12.802;2023-04-25T08:37:09;2.80;;;2.60;;
76115;SDS011;64847;45.778;12.802;2023-04-25T08:39:37;3.90;;;2.63;;
76115;SDS011;64847;45.778;12.802;2023-04-25T08:42:04;3.43;;;2.37;;
76115;SDS011;64847;45.778;12.802;2023-04-25T08:44:35;2.20;;;2.10;;
76115;SDS011;64847;45.778;12.802;2023-04-25T08:47:04;2.57;;;2.43;;
76115;SDS011;64847;45.778;12.802;2023-04-25T08:49:33;3.60;;;3.30;;
76115;SDS011;64847;45.778;12.802;2023-04-25T08:52:00;3.67;;;3.37;;
76115;SDS011;64847;45.778;12.802;2023-04-25T08:54:31;3.50;;;3.20;;
76115;SDS011;64847;45.778;12.802;2023-04-25T08:56:57;3.33;;;3.03;;
76115;SDS011;64847;45.778;12.802;2023-04-25T08:59:24;3.50;;;3.20;;
76115;SDS011;64847;45.778;12.802;2023-04-25T09:01:50;3.90;;;3.40;;
76115;SDS011;64847;45.778;12.802;2023-04-25T09:04:16;3.07;;;2.87;;
76115;SDS011;64847;45.778;12.802;2023-04-25T09:06:42;2.23;;;2.13;;
76115;SDS011;64847;45.778;12.802;2023-04-25T09:09:08;2.03;;;1.93;;
76115;SDS011;64847;45.778;12.802;2023-04-25T09:11:35;2.13;;;2.03;;
76115;SDS011;64847;45.778;12.802;2023-04-25T09:14:11;2.00;;;1.90;;
76115;SDS011;64847;45.778;12.802;2023-04-25T09:16:59;2.07;;;1.90;;
76115;SDS011;64847;45.778;12.802;2023-04-25T09:21:53;2.10;;;1.90;;
76115;SDS011;64847;45.778;12.802;2023-04-25T09:24:42;2.53;;;2.40;;
76115;SDS011;64847;45.778;12.802;2023-04-25T09:27:12;4.90;;;4.20;;
76115;SDS011;64847;45.778;12.802;2023-04-25T09:29:39;5.73;;;5.23;;
76115;SDS011;64847;45.778;12.802;2023-04-25T09:32:19;5.97;;;5.10;;
76115;SDS011;64847;45.778;12.802;2023-04-25T09:37:19;3.20;;;3.00;;
76115;SDS011;64847;45.778;12.802;2023-04-25T09:39:45;3.33;;;3.03;;
76115;SDS011;64847;45.778;12.802;2023-04-25T09:42:13;4.07;;;3.67;;
76115;SDS011;64847;45.778;12.802;2023-04-25T09:44:48;3.47;;;3.23;;
76115;SDS011;64847;45.778;12.802;2023-04-25T09:47:16;3.90;;;3.30;;
76115;SDS011;64847;45.778;12.802;2023-04-25T09:49:43;3.87;;;3.57;;
76115;SDS011;64847;45.778;12.802;2023-04-25T09:52:09;4.87;;;4.40;;
76115;SDS011;64847;45.778;12.802;2023-04-25T09:54:38;7.50;;;6.80;;
76115;SDS011;64847;45.778;12.802;2023-04-25T09:57:10;9.37;;;8.40;;
76115;SDS011;64847;45.778;12.802;2023-04-25T09:59:47;10.87;;;9.83;;
76115;SDS011;64847;45.778;12.802;2023-04-25T10:02:21;9.80;;;8.70;;
76115;SDS011;64847;45.778;12.802;2023-04-25T10:04:48;6.30;;;5.70;;
76115;SDS011;64847;45.778;12.802;2023-04-25T10:07:16;4.83;;;4.43;;
76115;SDS011;64847;45.778;12.802;2023-04-25T10:09:44;3.60;;;3.33;;
76115;SDS011;64847;45.778;12.802;2023-04-25T10:12:12;3.07;;;2.83;;
76115;SDS011;64847;45.778;12.802;2023-04-25T10:14:38;2.70;;;2.50;;
76115;SDS011;64847;45.778;12.802;2023-04-25T10:17:03;2.40;;;2.30;;
76115;SDS011;64847;45.778;12.802;2023-04-25T10:19:30;2.10;;;2.00;;
76115;SDS011;64847;45.778;12.802;2023-04-25T10:24:38;2.30;;;2.20;;
76115;SDS011;64847;45.778;12.802;2023-04-25T10:27:04;2.03;;;1.93;;
76115;SDS011;64847;45.778;12.802;2023-04-25T10:29:30;2.20;;;2.10;;
76115;SDS011;64847;45.778;12.802;2023-04-25T10:31:56;2.37;;;2.27;;
76115;SDS011;64847;45.778;12.802;2023-04-25T10:34:37;2.60;;;2.40;;
76115;SDS011;64847;45.778;12.802;2023-04-25T10:37:08;2.37;;;2.27;;
76115;SDS011;64847;45.778;12.802;2023-04-25T10:39:34;1.90;;;1.80;;
76115;SDS011;64847;45.778;12.802;2023-04-25T10:41:59;2.23;;;2.13;;
76115;SDS011;64847;45.778;12.802;2023-04-25T10:44:27;2.30;;;2.20;;
76115;SDS011;64847;45.778;12.802;2023-04-25T10:46:57;2.57;;;2.37;;
76115;SDS011;64847;45.778;12.802;2023-04-25T10:49:42;2.37;;;2.27;;
76115;SDS011;64847;45.778;12.802;2023-04-25T10:54:51;2.40;;;2.30;;
76115;SDS011;64847;45.778;12.802;2023-04-25T11:00:00;2.73;;;2.53;;
76115;SDS011;64847;45.778;12.802;2023-04-25T11:02:42;2.00;;;1.90;;
76115;SDS011;64847;45.778;12.802;2023-04-25T11:05:09;1.80;;;1.70;;
76115;SDS011;64847;45.778;12.802;2023-04-25T11:07:43;1.40;;;1.40;;
76115;SDS011;64847;45.778;12.802;2023-04-25T11:10:15;1.80;;;1.70;;
76115;SDS011;64847;45.778;12.802;2023-04-25T11:12:41;1.70;;;1.60;;
76115;SDS011;64847;45.778;12.802;2023-04-25T11:15:06;1.70;;;1.60;;
76115;SDS011;64847;45.778;12.802;2023-04-25T11:17:33;1.37;;;1.37;;
76115;SDS011;64847;45.778;12.802;2023-04-25T11:19:59;1.50;;;1.40;;
76115;SDS011;64847;45.778;12.802;2023-04-25T11:22:26;1.17;;;1.17;;
76115;SDS011;64847;45.778;12.802;2023-04-25T11:24:52;1.37;;;1.27;;
76115;SDS011;64847;45.778;12.802;2023-04-25T11:27:18;1.53;;;1.43;;
76115;SDS011;64847;45.778;12.802;2023-04-25T11:29:44;1.70;;;1.60;;
76115;SDS011;64847;45.778;12.802;2023-04-25T11:32:09;1.47;;;1.47;;
76115;SDS011;64847;45.778;12.802;2023-04-25T11:34:35;1.40;;;1.40;;
76115;SDS011;64847;45.778;12.802;2023-04-25T11:37:01;1.30;;;1.30;;
76115;SDS011;64847;45.778;12.802;2023-04-25T11:39:27;1.13;;;1.13;;
76115;SDS011;64847;45.778;12.802;2023-04-25T11:41:53;1.30;;;1.30;;
76115;SDS011;64847;45.778;12.802;2023-04-25T11:44:20;1.30;;;1.30;;
76115;SDS011;64847;45.778;12.802;2023-04-25T11:46:46;1.27;;;1.27;;
76115;SDS011;64847;45.778;12.802;2023-04-25T11:49:12;1.13;;;1.13;;
76115;SDS011;64847;45.778;12.802;2023-04-25T11:51:39;1.13;;;1.13;;
76115;SDS011;64847;45.778;12.802;2023-04-25T11:54:08;1.10;;;1.10;;
76115;SDS011;64847;45.778;12.802;2023-04-25T11:56:33;1.30;;;1.30;;
76115;SDS011;64847;45.778;12.802;2023-04-25T11:59:03;1.30;;;1.30;;
76115;SDS011;64847;45.778;12.802;2023-04-25T12:01:30;1.20;;;1.20;;
76115;SDS011;64847;45.778;12.802;2023-04-25T12:03:56;1.40;;;1.40;;
76115;SDS011;64847;45.778;12.802;2023-04-25T12:06:25;1.70;;;1.60;;
76115;SDS011;64847;45.778;12.802;2023-04-25T12:08:59;1.30;;;1.30;;
76115;SDS011;64847;45.778;12.802;2023-04-25T12:11:29;1.30;;;1.30;;
76115;SDS011;64847;45.778;12.802;2023-04-25T12:14:01;1.33;;;1.30;;
76115;SDS011;64847;45.778;12.802;2023-04-25T12:16:28;1.40;;;1.40;;
76115;SDS011;64847;45.778;12.802;2023-04-25T12:18:54;1.50;;;1.50;;
76115;SDS011;64847;45.778;12.802;2023-04-25T12:21:21;1.10;;;1.10;;
76115;SDS011;64847;45.778;12.802;2023-04-25T12:23:47;1.27;;;1.27;;
76115;SDS011;64847;45.778;12.802;2023-04-25T12:26:12;1.00;;;1.00;;
76115;SDS011;64847;45.778;12.802;2023-04-25T12:28:37;1.20;;;1.20;;
76115;SDS011;64847;45.778;12.802;2023-04-25T12:31:03;1.30;;;1.20;;
76115;SDS011;64847;45.778;12.802;2023-04-25T12:33:31;0.90;;;0.90;;
76115;SDS011;64847;45.778;12.802;2023-04-25T12:36:00;1.20;;;1.20;;
76115;SDS011;64847;45.778;12.802;2023-04-25T12:38:35;1.20;;;1.20;;
76115;SDS011;64847;45.778;12.802;2023-04-25T12:41:01;1.35;;;1.25;;
76115;SDS011;64847;45.778;12.802;2023-04-25T12:43:27;1.13;;;1.13;;
76115;SDS011;64847;45.778;12.802;2023-04-25T12:45:52;1.05;;;1.05;;
76115;SDS011;64847;45.778;12.802;2023-04-25T12:48:18;1.13;;;1.13;;
76115;SDS011;64847;45.778;12.802;2023-04-25T12:50:45;1.20;;;1.20;;
76115;SDS011;64847;45.778;12.802;2023-04-25T12:53:12;1.20;;;1.20;;
76115;SDS011;64847;45.778;12.802;2023-04-25T12:55:38;1.10;;;1.10;;
76115;SDS011;64847;45.778;12.802;2023-04-25T12:58:03;1.00;;;1.00;;
76115;SDS011;64847;45.778;12.802;2023-04-25T13:00:29;1.02;;;1.02;;
76115;SDS011;64847;45.778;12.802;2023-04-25T13:02:55;1.08;;;1.08;;
76115;SDS011;64847;45.778;12.802;2023-04-25T13:05:21;1.00;;;1.00;;
76115;SDS011;64847;45.778;12.802;2023-04-25T13:07:46;1.15;;;1.15;;
76115;SDS011;64847;45.778;12.802;2023-04-25T13:10:12;1.13;;;1.13;;
76115;SDS011;64847;45.778;12.802;2023-04-25T13:12:37;1.15;;;1.10;;
76115;SDS011;64847;45.778;12.802;2023-04-25T13:15:02;0.90;;;0.90;;
76115;SDS011;64847;45.778;12.802;2023-04-25T13:17:28;0.98;;;0.98;;
76115;SDS011;64847;45.778;12.802;2023-04-25T13:19:53;0.90;;;0.90;;
76115;SDS011;64847;45.778;12.802;2023-04-25T13:22:19;1.10;;;1.10;;
76115;SDS011;64847;45.778;12.802;2023-04-25T13:24:45;0.90;;;0.90;;
76115;SDS011;64847;45.778;12.802;2023-04-25T13:27:11;0.90;;;0.90;;
76115;SDS011;64847;45.778;12.802;2023-04-25T13:29:36;0.98;;;0.90;;
76115;SDS011;64847;45.778;12.802;2023-04-25T13:32:03;0.90;;;0.90;;
76115;SDS011;64847;45.778;12.802;2023-04-25T13:34:29;1.00;;;1.00;;
76115;SDS011;64847;45.778;12.802;2023-04-25T13:36:55;0.90;;;0.90;;
76115;SDS011;64847;45.778;12.802;2023-04-25T13:39:21;1.17;;;1.17;;
76115;SDS011;64847;45.778;12.802;2023-04-25T13:41:46;1.08;;;1.08;;
76115;SDS011;64847;45.778;12.802;2023-04-25T13:44:12;1.10;;;1.10;;
76115;SDS011;64847;45.778;12.802;2023-04-25T13:46:37;0.90;;;0.90;;
76115;SDS011;64847;45.778;12.802;2023-04-25T13:49:06;1.00;;;1.00;;
76115;SDS011;64847;45.778;12.802;2023-04-25T13:51:31;1.58;;;1.05;;
76115;SDS011;64847;45.778;12.802;2023-04-25T13:53:57;0.90;;;0.90;;
76115;SDS011;64847;45.778;12.802;2023-04-25T13:56:22;0.80;;;0.80;;
76115;SDS011;64847;45.778;12.802;2023-04-25T13:58:49;1.00;;;1.00;;
76115;SDS011;64847;45.778;12.802;2023-04-25T14:01:15;0.90;;;0.90;;
76115;SDS011;64847;45.778;12.802;2023-04-25T14:03:40;1.40;;;0.90;;
76115;SDS011;64847;45.778;12.802;2023-04-25T14:06:06;1.10;;;1.00;;
76115;SDS011;64847;45.778;12.802;2023-04-25T14:08:31;0.90;;;0.90;;
76115;SDS011;64847;45.778;12.802;2023-04-25T14:10:57;1.30;;;0.83;;
76115;SDS011;64847;45.778;12.802;2023-04-25T14:13:22;0.90;;;0.90;;
76115;SDS011;64847;45.778;12.802;2023-04-25T14:15:48;1.10;;;1.00;;
76115;SDS011;64847;45.778;12.802;2023-04-25T14:18:15;1.00;;;1.00;;
76115;SDS011;64847;45.778;12.802;2023-04-25T14:20:40;0.90;;;0.90;;
76115;SDS011;64847;45.778;12.802;2023-04-25T14:23:06;0.80;;;0.80;;
76115;SDS011;64847;45.778;12.802;2023-04-25T14:25:31;0.93;;;0.93;;
76115;SDS011;64847;45.778;12.802;2023-04-25T14:27:57;1.10;;;1.00;;
76115;SDS011;64847;45.778;12.802;2023-04-25T14:30:22;1.10;;;1.00;;
76115;SDS011;64847;45.778;12.802;2023-04-25T14:32:50;1.37;;;1.23;;
76115;SDS011;64847;45.778;12.802;2023-04-25T14:35:16;1.00;;;1.00;;
76115;SDS011;64847;45.778;12.802;2023-04-25T14:37:42;1.13;;;1.13;;
76115;SDS011;64847;45.778;12.802;2023-04-25T14:40:07;1.23;;;1.13;;
76115;SDS011;64847;45.778;12.802;2023-04-25T14:42:37;0.90;;;0.90;;